Ballonweer?

Available data for EHGG from the past 2 hours
GRONINGEN/EELDE
Metar
EHGG 250925Z AUTO 22005KT 9999 NSC 03/03 Q1009 NOSIG

09:25 UTC

Wind: 220° 5kt

Visibility: 9999 m

Sky:

Temp: 3 deg C / 37.4 deg F

Dewpoint: 3 deg C / 37.4 deg F

Pressure: 1009 hPa

TAF
TAF EHGG 250512Z 2506/2612 21004KT 0600 FZFG SCT030 PROB30 2506/2509 0300 BKN001 PROB30 TEMPO 2506/2508 2000 MIFG BECMG 2508/2511 9999 NSW TEMPO 2516/2612 7000 -SHRA FEW025CB BKN030 PROB40 TEMPO 2520/2612 25015G25KT 4500 SHRA SHRAGS BKN014 SCT020CB BECMG 2600/2603 24012KT

Buienradar (tot 2 uur vooruit)

 

KNMI weerbulletin kleine luchtvaart

Klik hier om het weerbulletin te openen in een nieuw tabblad.